Terminal Aerodrome Forecast
Issued by NWS Bismarck, ND

Home | Current Version | Previous Version | Graphics & Text | Print | Product List | Glossary On
Versions: 1 2 3 4 5 6 7 8 9 10 11 12 13 14 15 16 17 18 19 20 21 22
000
FTUS43 KBIS 050859 AAB
TAFISN
TAF AMD
KISN 050859Z 0509/0606 02012KT P6SM -TSRA SCT035 BKN045CB BKN070
      TEMPO 0510/0514 VRB15G25KT 2SM +TSRA SCT025 BKN035CB OVC050
     FM051500 01015KT P6SM VCTS SCT040CB BKN080
     FM060000 35008KT P6SM SCT030 SCT070=

USA.gov is the U.S. government's official web portal to all federal, state and local government web resources and services.